地図

経路データ

SID SEASON NUMBER BASIN SUBBASIN NAME ISO_TIME NATURE LAT LON WMO_WIND WMO_PRES WMO_AGENCY TRACK_TYPE DIST2LAND LANDFALL IFLAG USA_AGENCY USA_ATCF_ID USA_LAT USA_LON USA_RECORD USA_STATUS USA_WIND USA_PRES USA_SSHS USA_R34_NE USA_R34_SE USA_R34_SW USA_R34_NW USA_R50_NE USA_R50_SE USA_R50_SW USA_R50_NW USA_R64_NE USA_R64_SE USA_R64_SW USA_R64_NW USA_POCI USA_ROCI USA_RMW USA_EYE TOKYO_LAT TOKYO_LON TOKYO_GRADE TOKYO_WIND TOKYO_PRES TOKYO_R50_DIR TOKYO_R50_LONG TOKYO_R50_SHORT TOKYO_R30_DIR TOKYO_R30_LONG TOKYO_R30_SHORT TOKYO_LAND CMA_LAT CMA_LON CMA_CAT CMA_WIND CMA_PRES HKO_LAT HKO_LON HKO_CAT HKO_WIND HKO_PRES NEWDELHI_LAT NEWDELHI_LON NEWDELHI_GRADE NEWDELHI_WIND NEWDELHI_PRES NEWDELHI_CI NEWDELHI_DP NEWDELHI_POCI REUNION_LAT REUNION_LON REUNION_TYPE REUNION_WIND REUNION_PRES REUNION_TNUM REUNION_CI REUNION_RMW REUNION_R34_NE REUNION_R34_SE REUNION_R34_SW REUNION_R34_NW REUNION_R50_NE REUNION_R50_SE REUNION_R50_SW REUNION_R50_NW REUNION_R64_NE REUNION_R64_SE REUNION_R64_SW REUNION_R64_NW BOM_LAT BOM_LON BOM_TYPE BOM_WIND BOM_PRES BOM_TNUM BOM_CI BOM_RMW BOM_R34_NE BOM_R34_SE BOM_R34_SW BOM_R34_NW BOM_R50_NE BOM_R50_SE BOM_R50_SW BOM_R50_NW BOM_R64_NE BOM_R64_SE BOM_R64_SW BOM_R64_NW BOM_ROCI BOM_POCI BOM_EYE BOM_POS_METHOD BOM_PRES_METHOD NADI_LAT NADI_LON NADI_CAT NADI_WIND NADI_PRES WELLINGTON_LAT WELLINGTON_LON WELLINGTON_WIND WELLINGTON_PRES DS824_LAT DS824_LON DS824_STAGE DS824_WIND DS824_PRES TD9636_LAT TD9636_LON TD9636_STAGE TD9636_WIND TD9636_PRES TD9635_LAT TD9635_LON TD9635_WIND TD9635_PRES TD9635_ROCI NEUMANN_LAT NEUMANN_LON NEUMANN_CLASS NEUMANN_WIND NEUMANN_PRES MLC_LAT MLC_LON MLC_CLASS MLC_WIND MLC_PRES USA_GUST BOM_GUST BOM_GUST_PER REUNION_GUST REUNION_GUST_PER USA_SEAHGT USA_SEARAD_NE USA_SEARAD_SE USA_SEARAD_SW USA_SEARAD_NW STORM_SPEED STORM_DIR
1936111N07132 1936 11 WP MM NOT_NAMED 1936-04-20 10:00:00 NR 6.80000 131.900 main 588 565 __________O___ -1 6.80000 131.900 4 7 298
1936111N07132 1936 11 WP MM NOT_NAMED 1936-04-20 12:00:00 NR 6.90664 131.696 main 565 530 __________P___ -1 6.90664 131.696 4 7 299
1936111N07132 1936 11 WP MM NOT_NAMED 1936-04-20 15:00:00 NR 7.09530 131.373 main 530 485 __________P___ -1 7.09530 131.373 4 8 303
1936111N07132 1936 11 WP MM NOT_NAMED 1936-04-20 18:00:00 NR 7.35792 131.005 main 485 441 __________P___ -1 7.35792 131.005 4 10 309
1936111N07132 1936 11 WP MM NOT_NAMED 1936-04-20 21:00:00 NR 7.73898 130.567 main 441 419 __________P___ -1 7.73898 130.567 4 12 312
1936111N07132 1936 11 WP MM NOT_NAMED 1936-04-20 22:00:00 NR 7.90000 130.400 main 419 380 __________O___ -1 7.90000 130.400 4 15 315
1936111N07132 1936 11 WP MM NOT_NAMED 1936-04-21 00:00:00 NR 8.27713 130.033 main 380 336 __________P___ -1 8.27713 130.033 4 17 317
1936111N07132 1936 11 WP MM NOT_NAMED 1936-04-21 03:00:00 NR 8.94414 129.412 main 336 280 __________P___ -1 8.94414 129.412 4 19 317
1936111N07132 1936 11 WP MM NOT_NAMED 1936-04-21 06:00:00 NR 9.66866 128.735 main 280 238 __________P___ -1 9.66866 128.735 4 20 317
1936111N07132 1936 11 WP MM NOT_NAMED 1936-04-21 09:00:00 NR 10.3788 128.034 main 238 223 __________P___ -1 10.3788 128.034 4 20 315
1936111N07132 1936 11 WP MM NOT_NAMED 1936-04-21 10:00:00 NR 10.6000 127.800 main 223 163 __________O___ -1 10.6000 127.800 4 19 312
1936111N07132 1936 11 WP MM NOT_NAMED 1936-04-21 12:00:00 NR 11.0128 127.314 main 163 110 __________P___ -1 11.0128 127.314 4 19 310
1936111N07132 1936 11 WP MM NOT_NAMED 1936-04-21 15:00:00 NR 11.5889 126.578 main 110 44 __________P___ -1 11.5889 126.578 4 18 307
1936111N07132 1936 11 WP MM NOT_NAMED 1936-04-21 18:00:00 NR 12.0905 125.880 main 44 10 __________P___ -1 12.0905 125.880 4 16 305
1936111N07132 1936 11 WP MM NOT_NAMED 1936-04-21 21:00:00 NR 12.4924 125.273 main 10 0 __________P___ -1 12.4924 125.273 4 14 304
1936111N07132 1936 11 WP MM NOT_NAMED 1936-04-21 22:00:00 NR 12.6000 125.100 main 11 11 __________O___ -1 12.6000 125.100 4 10 300
1936111N07132 1936 11 WP MM NOT_NAMED 1936-04-22 00:00:00 NR 12.7525 124.814 main 35 33 __________P___ -1 12.7525 124.814 4 8 296
1936111N07132 1936 11 WP MM NOT_NAMED 1936-04-22 03:00:00 NR 12.8869 124.486 main 43 10 __________P___ -1 12.8869 124.486 4 6 291
1936111N07132 1936 11 WP MM NOT_NAMED 1936-04-22 06:00:00 NR 12.9665 124.247 main 10 0 __________P___ -1 12.9665 124.247 4 5 292
1936111N07132 1936 11 WP MM NOT_NAMED 1936-04-22 09:00:00 NR 13.0565 124.058 main 11 11 __________P___ -1 13.0565 124.058 4 4 299
1936111N07132 1936 11 WP MM NOT_NAMED 1936-04-22 10:00:00 NR 13.1000 124.000 main 11 0 __________O___ -1 13.1000 124.000 4 5 313
1936111N07132 1936 11 WP MM NOT_NAMED 1936-04-22 12:00:00 NR 13.2175 123.884 main 0 0 __________P___ -1 13.2175 123.884 4 6 322
1936111N07132 1936 11 WP MM NOT_NAMED 1936-04-22 15:00:00 NR 13.4588 123.709 main 10 0 __________P___ -1 13.4588 123.709 4 6 328
1936111N07132 1936 11 WP MM NOT_NAMED 1936-04-22 18:00:00 NR 13.7568 123.534 main 0 0 __________P___ -1 13.7568 123.534 4 7 332
1936111N07132 1936 11 WP MM NOT_NAMED 1936-04-22 21:00:00 NR 14.0870 123.359 main 15 11 __________P___ -1 14.0870 123.359 4 8 333
1936111N07132 1936 11 WP MM NOT_NAMED 1936-04-22 22:00:00 NR 14.2000 123.300 main 22 __________O___ -1 14.2000 123.300 4 8 335

デジタル台風データ・検索

IBTrACS Databaseについて

本データベースは、米国NOAAが公開する1842年以降の世界の熱帯低気圧のベストトラックデータアーカイブInternational Best Track Archive for Climate Stewardship (IBTrACS)を、ウェブで閲覧しやすい形式に変換したものです。

最終更新日:2021-10-08